createdAt,value
2018-12-03T00:01:32.287Z,100.00
2018-12-03T00:04:08.449Z,100.00
2018-12-03T00:06:38.791Z,100.00
2018-12-03T00:09:09.572Z,100.00
2018-12-03T00:11:39.124Z,100.00
2018-12-03T00:14:09.392Z,100.00
2018-12-03T00:16:39.888Z,100.00
2018-12-03T00:19:09.991Z,100.00
2018-12-03T00:21:40.125Z,100.00
2018-12-03T00:24:09.701Z,100.00
2018-12-03T00:26:39.236Z,100.00
2018-12-03T00:29:09.584Z,100.00
2018-12-03T00:31:39.614Z,100.00
2018-12-03T00:34:09.597Z,100.00
2018-12-03T00:36:39.686Z,100.00
2018-12-03T00:39:09.645Z,100.00
2018-12-03T00:41:39.731Z,100.00
2018-12-03T00:44:09.282Z,100.00
2018-12-03T00:46:38.893Z,100.00
2018-12-03T00:49:08.855Z,100.00
2018-12-03T00:51:38.840Z,100.00
2018-12-03T00:54:09.210Z,100.00
2018-12-03T00:56:39.269Z,100.00
2018-12-03T00:59:09.302Z,100.00
2018-12-03T01:01:38.868Z,100.00
2018-12-03T01:04:08.799Z,100.00
2018-12-03T01:06:38.415Z,100.00
2018-12-03T01:09:09.655Z,100.00
2018-12-03T01:11:39.259Z,100.00
2018-12-03T01:14:08.793Z,100.00
2018-12-03T01:16:38.353Z,100.00
2018-12-03T01:19:08.412Z,100.00
2018-12-03T01:21:38.912Z,100.00
2018-12-03T01:24:08.504Z,100.00
2018-12-03T01:26:38.548Z,100.00
2018-12-03T01:29:08.096Z,100.00
2018-12-03T01:31:43.658Z,100.00
2018-12-03T01:34:13.203Z,100.00
2018-12-03T01:36:43.645Z,100.00
2018-12-03T01:39:13.190Z,100.00
2018-12-03T01:41:43.265Z,100.00
2018-12-03T01:44:13.097Z,100.00
2018-12-03T01:46:42.628Z,100.00
2018-12-03T01:49:12.168Z,100.00
2018-12-03T01:51:45.120Z,100.00
2018-12-03T01:54:14.687Z,100.00
2018-12-03T01:56:44.802Z,100.00
2018-12-03T01:59:14.337Z,100.00
2018-12-03T02:01:44.285Z,100.00
2018-12-03T02:04:13.861Z,100.00
2018-12-03T02:06:43.384Z,100.00
2018-12-03T02:09:12.933Z,100.00
2018-12-03T02:11:43.331Z,100.00
2018-12-03T02:14:14.225Z,100.00
2018-12-03T02:16:44.410Z,100.00
2018-12-03T02:19:13.991Z,100.00
2018-12-03T02:21:43.971Z,100.00
2018-12-03T02:24:13.552Z,100.00
2018-12-03T02:26:44.484Z,100.00
2018-12-03T02:29:15.276Z,100.00
2018-12-03T02:31:45.394Z,100.00
2018-12-03T02:34:16.405Z,100.00
2018-12-03T02:36:46.441Z,100.00
2018-12-03T02:39:17.277Z,100.00
2018-12-03T02:41:48.312Z,100.00
2018-12-03T02:44:20.275Z,100.00
2018-12-03T02:46:51.398Z,100.00
2018-12-03T02:49:23.713Z,100.00
2018-12-03T02:51:55.351Z,100.00
2018-12-03T02:54:24.929Z,100.00
2018-12-03T02:56:56.363Z,100.00
2018-12-03T02:59:28.472Z,100.00
2018-12-03T03:01:59.531Z,100.00
2018-12-03T03:04:34.275Z,100.00
2018-12-03T03:07:04.493Z,100.00
2018-12-03T03:09:34.514Z,100.00
2018-12-03T03:12:06.541Z,100.00
2018-12-03T03:14:36.975Z,100.00
2018-12-03T03:17:07.513Z,100.00
2018-12-03T03:19:37.836Z,100.00
2018-12-03T03:22:08.468Z,100.00
2018-12-03T03:24:39.868Z,100.00
2018-12-03T03:27:10.534Z,100.00
2018-12-03T03:29:40.743Z,100.00
2018-12-03T03:32:11.781Z,100.00
2018-12-03T03:34:42.631Z,100.00
2018-12-03T03:37:13.424Z,100.00
2018-12-03T03:39:43.684Z,100.00
2018-12-03T03:42:14.749Z,100.00
2018-12-03T03:44:45.570Z,100.00
2018-12-03T03:47:15.783Z,100.00
2018-12-03T03:49:46.523Z,100.00
2018-12-03T03:52:16.770Z,100.00
2018-12-03T03:54:47.611Z,100.00
2018-12-03T03:57:17.972Z,100.00
2018-12-03T03:59:48.660Z,100.00
2018-12-03T04:02:18.665Z,100.00
2018-12-03T04:04:49.840Z,100.00
2018-12-03T04:07:20.592Z,100.00
2018-12-03T04:09:50.825Z,100.00
2018-12-03T04:12:21.835Z,100.00
2018-12-03T04:14:52.360Z,100.00
2018-12-03T04:17:22.887Z,100.00
2018-12-03T04:19:56.714Z,100.00
2018-12-03T04:22:28.848Z,100.00
2018-12-03T04:25:00.644Z,100.00
2018-12-03T04:27:31.992Z,100.00
2018-12-03T04:30:02.928Z,100.00
2018-12-03T04:32:32.905Z,100.00
2018-12-03T04:35:03.804Z,100.00
2018-12-03T04:37:35.013Z,100.00
2018-12-03T04:40:05.937Z,100.00
2018-12-03T04:42:36.965Z,100.00
2018-12-03T04:45:10.344Z,100.00
2018-12-03T04:47:41.076Z,100.00
2018-12-03T04:50:17.882Z,100.00
2018-12-03T04:52:48.132Z,100.00
2018-12-03T04:55:18.945Z,100.00
2018-12-03T04:57:49.356Z,100.00
2018-12-03T05:00:19.856Z,100.00
2018-12-03T05:02:52.049Z,100.00
2018-12-03T05:05:23.933Z,100.00
2018-12-03T05:07:53.922Z,100.00
2018-12-03T05:10:25.265Z,100.00
2018-12-03T05:12:55.021Z,100.00
2018-12-03T05:15:25.164Z,100.00
2018-12-03T05:17:56.994Z,100.00
2018-12-03T05:20:29.083Z,100.00
2018-12-03T05:23:01.149Z,100.00
2018-12-03T05:25:31.181Z,100.00
2018-12-03T05:28:02.245Z,100.00
2018-12-03T05:30:32.195Z,100.00
2018-12-03T05:33:03.170Z,100.00
2018-12-03T05:35:34.287Z,100.00
2018-12-03T05:38:05.385Z,100.00
2018-12-03T05:40:35.360Z,100.00
2018-12-03T05:43:07.364Z,100.00
2018-12-03T05:45:37.284Z,100.00
2018-12-03T05:48:07.308Z,100.00
2018-12-03T05:50:41.216Z,100.00
2018-12-03T05:53:12.458Z,100.00
2018-12-03T05:55:43.321Z,100.00
2018-12-03T05:58:14.209Z,100.00
2018-12-03T06:00:44.414Z,100.00
2018-12-03T06:03:15.469Z,100.00
2018-12-03T06:05:45.470Z,100.00
2018-12-03T06:08:16.282Z,100.00
2018-12-03T06:10:46.296Z,100.00
2018-12-03T06:13:17.396Z,100.00
2018-12-03T06:15:47.425Z,100.00
2018-12-03T06:18:18.428Z,100.00
2018-12-03T06:20:49.296Z,100.00
2018-12-03T06:23:19.333Z,100.00
2018-12-03T06:25:51.293Z,100.00
2018-12-03T06:28:23.345Z,100.00
2018-12-03T06:30:55.488Z,100.00
2018-12-03T06:33:25.169Z,100.00
2018-12-03T06:35:55.338Z,100.00
2018-12-03T06:38:25.271Z,100.00
2018-12-03T06:40:56.372Z,100.00
2018-12-03T06:43:25.919Z,100.00
2018-12-03T06:45:58.483Z,100.00
2018-12-03T06:48:28.498Z,100.00
2018-12-03T06:50:59.624Z,100.00
2018-12-03T06:53:32.612Z,100.00
2018-12-03T06:56:03.932Z,100.00
2018-12-03T06:58:33.587Z,100.00
2018-12-03T07:01:06.100Z,100.00
2018-12-03T07:03:36.399Z,100.00
2018-12-03T07:06:06.684Z,100.00
2018-12-03T07:08:37.588Z,100.00
2018-12-03T07:11:08.728Z,100.00
2018-12-03T07:13:39.208Z,100.00
2018-12-03T07:16:09.501Z,100.00
2018-12-03T07:18:39.582Z,100.00
2018-12-03T07:21:10.759Z,100.00
2018-12-03T07:23:41.674Z,100.00
2018-12-03T07:26:11.538Z,100.00
2018-12-03T07:28:42.588Z,100.00
2018-12-03T07:31:12.727Z,100.00
2018-12-03T07:33:43.608Z,100.00
2018-12-03T07:36:14.388Z,100.00
2018-12-03T07:38:44.695Z,100.00
2018-12-03T07:41:15.647Z,100.00
2018-12-03T07:43:45.759Z,100.00
2018-12-03T07:46:16.763Z,100.00
2018-12-03T07:48:50.543Z,100.00
2018-12-03T07:51:20.912Z,100.00
2018-12-03T07:53:52.785Z,100.00
2018-12-03T07:56:23.014Z,100.00
2018-12-03T07:58:52.801Z,100.00
2018-12-03T08:01:24.777Z,100.00
2018-12-03T08:03:54.869Z,100.00
2018-12-03T08:06:25.253Z,100.00
2018-12-03T08:08:55.816Z,100.00
2018-12-03T08:11:25.616Z,100.00
2018-12-03T08:13:55.189Z,100.00
2018-12-03T08:16:25.564Z,100.00
2018-12-03T08:18:56.016Z,100.00
2018-12-03T08:21:25.692Z,100.00
2018-12-03T08:24:03.031Z,100.00
2018-12-03T08:26:33.105Z,100.00
2018-12-03T08:29:04.124Z,100.00
2018-12-03T08:31:34.993Z,100.00
2018-12-03T08:34:05.181Z,100.00
2018-12-03T08:36:36.043Z,100.00
2018-12-03T08:39:09.844Z,100.00
2018-12-03T08:41:40.246Z,100.00
2018-12-03T08:44:10.221Z,100.00
2018-12-03T08:47:17.573Z,100.00
2018-12-03T08:49:48.204Z,100.00
2018-12-03T08:52:19.217Z,100.00
2018-12-03T08:54:49.789Z,100.00
2018-12-03T08:57:20.070Z,100.00
2018-12-03T08:59:51.056Z,100.00
2018-12-03T09:02:21.106Z,100.00
2018-12-03T09:04:53.218Z,100.00
2018-12-03T09:07:23.429Z,100.00
2018-12-03T09:09:53.805Z,100.00
2018-12-03T09:12:24.143Z,100.00
2018-12-03T09:14:55.293Z,100.00
2018-12-03T09:17:25.903Z,100.00
2018-12-03T09:19:56.526Z,100.00
2018-12-03T09:22:32.157Z,100.00
2018-12-03T09:25:06.785Z,100.00
2018-12-03T09:27:38.168Z,99.77
2018-12-03T09:30:08.406Z,99.79
2018-12-03T09:32:39.506Z,99.66
2018-12-03T09:35:10.055Z,99.17
2018-12-03T09:37:40.366Z,99.84
2018-12-03T09:40:42.034Z,99.75
2018-12-03T09:43:14.292Z,100.00
2018-12-03T09:45:44.349Z,100.00
2018-12-03T09:48:15.404Z,100.00
2018-12-03T09:50:45.516Z,100.00
2018-12-03T09:53:16.513Z,100.00
2018-12-03T09:55:46.548Z,100.00
2018-12-03T09:58:22.060Z,100.00
2018-12-03T10:00:54.245Z,100.00
2018-12-03T10:03:27.276Z,100.00
2018-12-03T10:06:01.437Z,100.00
2018-12-03T10:08:32.624Z,100.00
2018-12-03T10:11:03.673Z,100.00
2018-12-03T10:13:35.553Z,100.00
2018-12-03T10:16:06.642Z,100.00
2018-12-03T10:18:36.345Z,100.00
2018-12-03T10:21:07.648Z,99.93
2018-12-03T10:23:38.447Z,99.29
2018-12-03T10:26:11.155Z,99.37
2018-12-03T10:28:42.517Z,99.46
2018-12-03T10:31:14.675Z,99.15
2018-12-03T10:33:44.298Z,98.66
2018-12-03T10:36:14.675Z,98.43
2018-12-03T10:38:48.025Z,97.82
2018-12-03T10:44:05.105Z,97.15
2018-12-03T10:46:35.483Z,96.10
2018-12-03T10:49:08.884Z,95.96
2018-12-03T10:51:39.781Z,95.84
2018-12-03T10:54:09.583Z,95.60
2018-12-03T10:56:40.662Z,95.28
2018-12-03T10:59:11.471Z,95.29
2018-12-03T11:01:50.806Z,95.38
2018-12-03T11:04:27.048Z,95.49
2018-12-03T11:06:57.148Z,96.00
2018-12-03T11:09:33.129Z,96.21
2018-12-03T11:11:59.837Z,96.13
2018-12-03T11:14:32.981Z,96.08
2018-12-03T11:17:04.055Z,96.25
2018-12-03T11:19:34.705Z,96.44
2018-12-03T11:22:04.701Z,96.55
2018-12-03T11:24:38.829Z,97.11
2018-12-03T11:27:08.660Z,96.96
2018-12-03T11:29:40.731Z,96.70
2018-12-03T11:32:10.985Z,96.75
2018-12-03T11:34:42.865Z,96.51
2018-12-03T11:37:16.662Z,95.67
2018-12-03T11:39:54.695Z,95.18
2018-12-03T11:42:28.160Z,94.89
2018-12-03T11:44:58.854Z,94.76
2018-12-03T11:47:28.933Z,94.45
2018-12-03T11:50:00.779Z,94.12
2018-12-03T11:52:31.795Z,94.03
2018-12-03T11:55:01.890Z,93.70
2018-12-03T11:57:31.864Z,93.36
2018-12-03T12:00:03.149Z,93.39
2018-12-03T12:02:33.173Z,93.39
2018-12-03T12:05:05.837Z,93.71
2018-12-03T12:07:42.323Z,93.98
2018-12-03T12:10:12.173Z,94.36
2018-12-03T12:12:41.931Z,94.67
2018-12-03T12:15:13.455Z,94.74
2018-12-03T12:17:45.991Z,94.77
2018-12-03T12:20:16.001Z,94.96
2018-12-03T12:22:47.131Z,95.04
2018-12-03T12:25:19.287Z,94.60
2018-12-03T12:27:56.767Z,93.91
2018-12-03T12:30:26.433Z,93.93
2018-12-03T12:32:56.231Z,93.86
2018-12-03T12:35:25.937Z,93.62
2018-12-03T12:37:56.966Z,93.87
2018-12-03T12:40:26.568Z,94.33
2018-12-03T12:42:58.078Z,94.73
2018-12-03T12:45:35.822Z,95.32
2018-12-03T12:48:06.275Z,95.20
2018-12-03T12:50:36.378Z,95.45
2018-12-03T12:53:07.476Z,94.94
2018-12-03T12:55:38.341Z,94.84
2018-12-03T12:58:09.282Z,94.51
2018-12-03T13:00:40.422Z,93.60
2018-12-03T13:03:10.364Z,92.88
2018-12-03T13:05:41.150Z,92.61
2018-12-03T13:08:11.632Z,92.10
2018-12-03T13:10:42.349Z,92.71
2018-12-03T13:13:13.285Z,92.22
2018-12-03T13:15:45.336Z,93.11
2018-12-03T13:18:18.191Z,92.90
2018-12-03T13:20:51.924Z,93.06
2018-12-03T13:23:24.404Z,93.69
2018-12-03T13:25:55.445Z,94.57
2018-12-03T13:28:25.439Z,94.87
2018-12-03T13:30:55.353Z,94.88
2018-12-03T13:33:25.907Z,95.04
2018-12-03T13:35:57.489Z,95.38
2018-12-03T13:38:29.367Z,95.23
2018-12-03T13:41:01.404Z,94.99
2018-12-03T13:43:32.000Z,94.88
2018-12-03T13:46:02.411Z,95.22
2018-12-03T13:48:32.648Z,95.72
2018-12-03T13:51:04.036Z,96.60
2018-12-03T13:53:34.693Z,97.10
2018-12-03T13:56:05.669Z,96.99
2018-12-03T13:58:36.186Z,97.58
2018-12-03T14:01:06.581Z,98.23
2018-12-03T14:03:38.757Z,98.69
2018-12-03T14:06:25.717Z,99.24
2018-12-03T14:11:41.225Z,99.64
2018-12-03T14:15:28.048Z,100.00
2018-12-03T14:18:14.405Z,100.00
2018-12-03T14:20:48.100Z,99.36
2018-12-03T14:23:30.102Z,99.33
2018-12-03T14:26:03.478Z,98.76
2018-12-03T14:28:34.657Z,98.54
2018-12-03T14:31:05.782Z,98.37
2018-12-03T14:33:36.820Z,98.47
2018-12-03T14:36:07.137Z,98.57
2018-12-03T14:38:37.610Z,98.21
2018-12-03T14:41:07.797Z,98.24
2018-12-03T14:43:38.763Z,98.21
2018-12-03T14:46:08.789Z,98.54
2018-12-03T14:48:39.721Z,98.72
2018-12-03T14:51:10.926Z,99.00
2018-12-03T14:53:44.544Z,99.20
2018-12-03T14:56:14.843Z,99.30
2018-12-03T14:58:44.683Z,99.62
2018-12-03T15:01:15.616Z,99.68
2018-12-03T15:03:46.775Z,99.95
2018-12-03T15:06:16.814Z,100.00
2018-12-03T15:08:47.824Z,100.00
2018-12-03T15:11:21.598Z,100.00
2018-12-03T15:13:57.894Z,100.00
2018-12-03T15:16:29.930Z,100.00
2018-12-03T15:19:02.704Z,100.00
2018-12-03T15:21:32.929Z,100.00
2018-12-03T15:24:04.013Z,100.00
2018-12-03T15:26:35.888Z,100.00
2018-12-03T15:29:06.781Z,100.00
2018-12-03T15:31:38.906Z,100.00
2018-12-03T15:34:09.924Z,100.00
2018-12-03T15:36:40.958Z,100.00
2018-12-03T15:39:11.989Z,100.00
2018-12-03T15:41:44.080Z,100.00
2018-12-03T15:44:14.776Z,100.00
2018-12-03T15:46:44.930Z,100.00
2018-12-03T15:49:16.888Z,100.00
2018-12-03T15:51:46.983Z,100.00
2018-12-03T15:54:20.377Z,100.00
2018-12-03T15:56:50.704Z,100.00
2018-12-03T15:59:21.589Z,100.00
2018-12-03T16:01:52.016Z,100.00
2018-12-03T16:04:22.844Z,100.00
2018-12-03T16:06:52.980Z,100.00
2018-12-03T16:09:23.070Z,100.00
2018-12-03T16:11:54.812Z,100.00
2018-12-03T16:14:25.584Z,100.00
2018-12-03T16:16:56.187Z,100.00
2018-12-03T16:19:26.357Z,100.00
2018-12-03T16:21:56.739Z,100.00
2018-12-03T16:24:26.355Z,100.00
2018-12-03T16:26:57.028Z,100.00
2018-12-03T16:29:26.777Z,100.00
2018-12-03T16:31:57.214Z,100.00
2018-12-03T16:34:26.785Z,100.00
2018-12-03T16:36:59.078Z,100.00
2018-12-03T16:39:30.123Z,100.00
2018-12-03T16:42:00.173Z,100.00
2018-12-03T16:44:30.261Z,100.00
2018-12-03T16:47:01.252Z,100.00
2018-12-03T16:49:32.404Z,100.00
2018-12-03T16:52:02.302Z,100.00
2018-12-03T16:54:32.403Z,100.00
2018-12-03T16:57:03.273Z,100.00
2018-12-03T16:59:35.310Z,100.00
2018-12-03T17:02:05.358Z,100.00
2018-12-03T17:04:35.286Z,100.00
2018-12-03T17:07:05.377Z,100.00
2018-12-03T17:09:35.359Z,100.00
2018-12-03T17:12:06.516Z,100.00
2018-12-03T17:14:39.328Z,100.00
2018-12-03T17:17:10.271Z,100.00
2018-12-03T17:19:41.512Z,100.00
2018-12-03T17:22:32.712Z,100.00
2018-12-03T17:25:03.744Z,100.00
2018-12-03T17:27:37.227Z,100.00
2018-12-03T17:30:08.710Z,100.00
2018-12-03T17:32:41.495Z,100.00
2018-12-03T17:35:12.452Z,100.00
2018-12-03T17:37:42.490Z,100.00
2018-12-03T17:40:14.305Z,100.00
2018-12-03T17:42:43.999Z,100.00
2018-12-03T17:45:14.684Z,100.00
2018-12-03T17:47:45.499Z,100.00
2018-12-03T17:50:16.527Z,100.00
2018-12-03T17:52:47.675Z,100.00
2018-12-03T17:55:17.728Z,100.00
2018-12-03T17:57:48.528Z,100.00
2018-12-03T18:00:18.458Z,100.00
2018-12-03T18:02:48.614Z,100.00
2018-12-03T18:05:19.592Z,100.00
2018-12-03T18:07:49.520Z,100.00
2018-12-03T18:10:20.703Z,100.00
2018-12-03T18:12:50.665Z,100.00
2018-12-03T18:15:21.539Z,100.00
2018-12-03T18:17:53.817Z,100.00
2018-12-03T18:20:25.705Z,100.00
2018-12-03T18:22:56.167Z,100.00
2018-12-03T18:25:26.678Z,100.00
2018-12-03T18:27:56.780Z,100.00
2018-12-03T18:30:26.545Z,100.00
2018-12-03T18:32:57.820Z,100.00
2018-12-03T18:35:28.576Z,100.00
2018-12-03T18:37:59.104Z,100.00
2018-12-03T18:40:29.708Z,100.00
2018-12-03T18:43:00.154Z,100.00
2018-12-03T18:45:30.732Z,100.00
2018-12-03T18:48:01.385Z,100.00
2018-12-03T18:50:34.888Z,100.00
2018-12-03T18:53:27.765Z,100.00
2018-12-03T18:55:59.889Z,100.00
2018-12-03T18:59:10.951Z,100.00
2018-12-03T19:01:41.976Z,100.00
2018-12-03T19:04:13.283Z,100.00
2018-12-03T19:06:44.874Z,100.00
2018-12-03T19:09:17.031Z,100.00
2018-12-03T19:11:47.368Z,100.00
2018-12-03T19:14:24.943Z,100.00
2018-12-03T19:16:58.136Z,100.00
2018-12-03T19:19:29.829Z,100.00
2018-12-03T19:22:01.042Z,100.00
2018-12-03T19:24:33.069Z,100.00
2018-12-03T19:27:03.441Z,100.00
2018-12-03T19:29:38.764Z,100.00
2018-12-03T19:32:09.841Z,100.00
2018-12-03T19:34:41.782Z,100.00
2018-12-03T19:37:13.886Z,100.00
2018-12-03T19:39:44.309Z,100.00
2018-12-03T19:42:14.847Z,100.00
2018-12-03T19:44:44.848Z,100.00
2018-12-03T19:47:15.967Z,100.00
2018-12-03T19:49:46.447Z,100.00
2018-12-03T19:52:17.235Z,100.00
2018-12-03T19:54:47.923Z,100.00
2018-12-03T19:57:22.766Z,100.00
2018-12-03T20:00:00.894Z,100.00
2018-12-03T20:02:30.109Z,100.00
2018-12-03T20:05:06.085Z,100.00
2018-12-03T20:07:35.702Z,100.00
2018-12-03T20:10:07.367Z,100.00
2018-12-03T20:12:38.362Z,100.00
2018-12-03T20:15:08.832Z,100.00
2018-12-03T20:17:40.656Z,100.00
2018-12-03T20:20:19.580Z,100.00
2018-12-03T20:23:01.277Z,100.00
2018-12-03T20:25:40.131Z,100.00
2018-12-03T20:28:14.604Z,100.00
2018-12-03T20:34:03.709Z,100.00
2018-12-03T20:36:51.481Z,100.00
2018-12-03T20:41:33.048Z,100.00
2018-12-03T20:45:18.952Z,100.00
2018-12-03T20:47:53.102Z,100.00
2018-12-03T20:50:44.165Z,100.00
2018-12-03T20:53:18.406Z,100.00
2018-12-03T20:55:48.903Z,100.00
2018-12-03T20:58:25.919Z,100.00
2018-12-03T21:00:55.758Z,100.00
2018-12-03T21:03:27.697Z,100.00
2018-12-03T21:06:05.589Z,100.00
2018-12-03T21:08:36.318Z,100.00
2018-12-03T21:11:06.567Z,100.00
2018-12-03T21:13:36.504Z,100.00
2018-12-03T21:16:08.038Z,100.00
2018-12-03T21:18:38.669Z,100.00
2018-12-03T21:21:10.302Z,100.00
2018-12-03T21:23:39.887Z,100.00
2018-12-03T21:26:10.378Z,100.00
2018-12-03T21:28:41.485Z,100.00
2018-12-03T21:31:11.703Z,100.00
2018-12-03T21:33:42.330Z,100.00
2018-12-03T21:36:13.385Z,100.00
2018-12-03T21:38:43.779Z,100.00
2018-12-03T21:41:15.239Z,100.00
2018-12-03T21:43:50.778Z,100.00
2018-12-03T21:46:21.452Z,100.00
2018-12-03T21:48:52.565Z,100.00
2018-12-03T21:51:25.542Z,100.00
2018-12-03T21:53:56.613Z,100.00
2018-12-03T21:56:26.737Z,100.00
2018-12-03T21:58:58.602Z,100.00
2018-12-03T22:01:30.621Z,100.00
2018-12-03T22:04:00.688Z,100.00
2018-12-03T22:06:30.721Z,100.00
2018-12-03T22:09:01.708Z,100.00
2018-12-03T22:11:32.003Z,100.00
2018-12-03T22:14:02.793Z,100.00
2018-12-03T22:16:38.895Z,100.00
2018-12-03T22:19:11.848Z,100.00
2018-12-03T22:21:45.471Z,100.00
2018-12-03T22:24:20.634Z,100.00
2018-12-03T22:26:54.016Z,100.00
2018-12-03T22:29:30.059Z,100.00
2018-12-03T22:32:05.606Z,100.00
2018-12-03T22:34:36.951Z,100.00
2018-12-03T22:37:07.685Z,100.00
2018-12-03T22:39:39.393Z,100.00
2018-12-03T22:42:11.869Z,100.00
2018-12-03T22:44:46.919Z,100.00
2018-12-03T22:47:17.847Z,100.00
2018-12-03T22:49:48.776Z,100.00
2018-12-03T22:52:20.725Z,100.00
2018-12-03T22:54:52.396Z,100.00
2018-12-03T22:57:22.916Z,100.00
2018-12-03T22:59:53.830Z,100.00
2018-12-03T23:02:24.693Z,100.00
2018-12-03T23:04:55.048Z,100.00
2018-12-03T23:07:25.980Z,100.00
2018-12-03T23:09:55.941Z,100.00
2018-12-03T23:12:26.909Z,100.00
2018-12-03T23:14:57.074Z,100.00
2018-12-03T23:17:26.732Z,100.00
2018-12-03T23:19:56.941Z,100.00
2018-12-03T23:22:27.656Z,100.00
2018-12-03T23:25:05.245Z,100.00
2018-12-03T23:27:36.133Z,100.00
2018-12-03T23:30:07.581Z,100.00
2018-12-03T23:32:38.987Z,100.00
2018-12-03T23:35:10.766Z,100.00
2018-12-03T23:37:41.322Z,100.00
2018-12-03T23:40:12.204Z,100.00
2018-12-03T23:42:42.689Z,100.00
2018-12-03T23:45:13.125Z,100.00
2018-12-03T23:47:43.721Z,100.00
2018-12-03T23:50:14.584Z,100.00
2018-12-03T23:52:45.160Z,100.00
2018-12-03T23:55:15.904Z,100.00
2018-12-03T23:57:46.521Z,100.00
